Time;durP1;ratioP1;P1;durP2;ratioP2;P2;SDS_P1;SDS_P2;PMS_P1;PMS_P2;Temp;Humidity;BMP_temperature;BMP_pressure;BME280_temperature;BME280_humidity;BME280_pressure;Samples;Min_cycle;Max_cycle;Signal;HPM_P1;HPM_P2
2023/11/16 06:35:22;;;;;;;1.30;0.90;;;;;;;-144.73;100.00;87591.13;105336;1280;557963;-61
2023/11/16 06:38:09;;;;;;;2.40;1.30;;;;;;;-144.73;100.00;86307.62;106434;1270;145521;-62
2023/11/16 06:40:59;;;;;;;2.70;1.50;;;;;;;-144.73;100.00;86293.39;106500;1273;22574;-60
2023/11/16 06:43:46;;;;;;;4.30;1.00;;;;;;;-144.73;100.00;86305.64;106640;1266;24275;-60
2023/11/16 06:46:34;;;;;;;1.80;0.80;;;;;;;-144.73;99.98;86302.48;106445;1266;22532;-61
2023/11/16 06:49:21;;;;;;;1.80;0.90;;;;;;;-144.73;99.83;86289.83;106713;1270;22539;-61
2023/11/16 06:52:13;;;;;;;1.80;1.10;;;;;;;-144.73;99.47;86299.32;106613;1273;22559;-61
2023/11/16 06:55:00;;;;;;;0.60;0.60;;;;;;;-144.73;99.16;86299.71;107339;1260;22526;-60
2023/11/16 06:57:47;;;;;;;1.30;0.70;;;;;;;-144.73;98.96;86307.62;107141;1264;24235;-60
2023/11/16 07:00:36;;;;;;;2.00;0.90;;;;;;;-144.73;99.27;86310.78;107678;1257;22771;-60
2023/11/16 07:03:23;;;;;;;1.00;0.80;;;;;;;-144.73;99.55;86308.81;107597;1263;22211;-61
2023/11/16 07:06:10;;;;;;;2.20;0.80;;;;;;;-144.73;99.83;86323.05;107607;1263;24265;-62
2023/11/16 07:08:56;;;;;;;4.60;0.80;;;;;;;-144.73;99.76;86320.27;107708;1260;22523;-61
2023/11/16 07:11:43;;;;;;;1.30;0.80;;;;;;;-144.73;99.80;86323.45;107415;1260;25108;-59
2023/11/16 07:14:30;;;;;;;2.40;0.80;;;;;;;-144.73;100.00;86344.00;107446;1260;22524;-57
2023/11/16 07:17:33;;;;;;;1.80;0.80;;;;;;;-144.73;100.00;86339.66;107144;1254;22545;-60
2023/11/16 07:20:21;;;;;;;3.50;1.00;;;;;;;-144.73;100.00;86376.43;107808;1264;24215;-58
2023/11/16 07:23:08;;;;;;;1.70;1.10;;;;;;;-144.73;100.00;86379.98;107336;1260;24305;-59
2023/11/16 07:25:57;;;;;;;2.00;1.10;;;;;;;-144.73;100.00;86393.44;107742;1266;22529;-58
2023/11/16 07:28:47;;;;;;;3.30;1.50;;;;;;;-144.73;100.00;86398.98;107161;1269;22546;-58
2023/11/16 07:31:34;;;;;;;1.90;1.10;;;;;;;-144.73;100.00;86405.69;107300;1266;25344;-57
2023/11/16 07:34:23;;;;;;;1.20;0.60;;;;;;;-144.73;100.00;86405.30;107170;1266;25297;-58
2023/11/16 07:37:13;;;;;;;1.60;0.80;;;;;;;-144.73;100.00;86407.67;107297;1263;22530;-59
2023/11/16 07:39:59;;;;;;;3.10;0.90;;;;;;;-144.73;100.00;86405.30;107039;1276;23650;-57
2023/11/16 07:42:50;;;;;;;1.60;0.90;;;;;;;-144.73;100.00;86395.02;107125;1260;25366;-57
2023/11/16 07:45:37;;;;;;;1.70;0.80;;;;;;;-144.73;100.00;86393.84;106925;1262;25347;-57
2023/11/16 07:48:28;;;;;;;2.20;0.90;;;;;;;-144.73;100.00;86393.44;107641;1263;22541;-57
2023/11/16 07:51:19;;;;;;;2.60;0.90;;;;;;;-144.73;99.60;86404.91;107178;1262;22052;-58
2023/11/16 07:54:07;;;;;;;3.60;1.30;;;;;;;-144.73;99.36;86431.40;107283;1256;22543;-57
2023/11/16 07:57:01;;;;;;;4.80;0.90;;;;;;;-144.73;99.27;86428.64;107236;1266;22533;-57
2023/11/16 07:59:47;;;;;;;1.60;0.90;;;;;;;-144.73;99.21;86410.05;107170;1263;23244;-58
2023/11/16 08:03:42;;;;;;;1.00;0.80;;;;;;;-144.73;98.98;86425.86;107898;1266;22544;-56
2023/11/16 08:05:42;;;;;;;2.30;0.90;;;;;;;-144.73;99.21;86430.61;107277;1263;22529;-59
2023/11/16 08:08:31;;;;;;;1.90;0.90;;;;;;;-144.73;99.11;86414.40;107937;1260;22584;-58
2023/11/16 08:11:19;;;;;;;1.70;1.10;;;;;;;-144.73;98.96;86410.83;107240;1271;24242;-58
2023/11/16 08:14:06;;;;;;;1.80;1.00;;;;;;;-144.73;98.58;86424.67;107079;1266;22552;-57
2023/11/16 08:16:58;;;;;;;1.50;0.80;;;;;;;-144.73;98.08;86412.81;107018;1260;24161;-57
2023/11/16 08:19:45;;;;;;;2.10;1.10;;;;;;;-144.73;97.51;86413.21;106919;1263;22530;-58
2023/11/16 08:22:34;;;;;;;3.60;1.10;;;;;;;-144.73;97.03;86410.44;107300;1267;25385;-60
2023/11/16 08:25:22;;;;;;;2.30;1.00;;;;;;;-144.73;96.18;86439.31;107266;1263;24204;-59
2023/11/16 08:28:08;;;;;;;4.00;1.00;;;;;;;-144.73;95.84;86451.17;107339;1262;24212;-59
2023/11/16 08:30:58;;;;;;;3.10;1.10;;;;;;;-144.73;95.85;86457.11;107042;1263;22732;-58
2023/11/16 08:33:45;;;;;;;2.00;1.00;;;;;;;-144.73;95.08;86467.79;107330;1261;22557;-58
2023/11/16 08:36:31;;;;;;;2.50;1.00;;;;;;;-144.73;95.41;86476.09;106912;1263;25284;-59
2023/11/16 08:39:18;;;;;;;2.50;1.20;;;;;;;-144.73;95.44;86467.80;107722;1270;25211;-57
2023/11/16 08:42:06;;;;;;;2.20;1.10;;;;;;;-144.73;94.91;86482.82;107542;1267;22554;-58
2023/11/16 08:44:53;;;;;;;2.60;1.10;;;;;;;-144.73;95.19;86485.58;107368;1260;22531;-59
2023/11/16 08:47:43;;;;;;;2.10;1.20;;;;;;;-144.73;95.03;86485.19;106962;1256;22591;-60
2023/11/16 08:50:29;;;;;;;2.80;1.40;;;;;;;-144.73;95.11;86507.34;107500;1263;22389;-59
2023/11/16 08:53:16;;;;;;;4.60;1.40;;;;;;;-144.73;94.79;86505.75;107539;1264;22511;-60
2023/11/16 08:56:03;;;;;;;3.80;1.50;;;;;;;-144.73;95.38;86509.31;107438;1261;22598;-58
2023/11/16 08:58:52;;;;;;;3.50;1.70;;;;;;;-144.73;95.87;86517.61;107101;1260;24205;-58
2023/11/16 09:01:39;;;;;;;3.80;1.50;;;;;;;-144.73;96.82;86506.94;107252;1275;22522;-59
2023/11/16 09:04:28;;;;;;;4.70;2.30;;;;;;;-144.73;97.18;86504.96;107235;1260;22523;-60
2023/11/16 09:07:15;;;;;;;4.00;2.30;;;;;;;-144.73;97.14;86502.98;106952;1266;23860;-59
2023/11/16 09:10:05;;;;;;;4.40;2.00;;;;;;;-144.73;97.30;86510.89;107465;1263;22525;-58
2023/11/16 09:12:55;;;;;;;4.40;2.10;;;;;;;-144.73;97.92;86527.90;107420;1262;22530;-59
2023/11/16 09:15:43;;;;;;;5.20;2.40;;;;;;;-144.73;98.43;86523.95;107275;1269;22530;-58
2023/11/16 09:18:29;;;;;;;6.70;2.50;;;;;;;-144.73;98.94;86529.48;107397;1260;25457;-58
2023/11/16 09:21:17;;;;;;;4.70;2.00;;;;;;;-144.73;99.15;86530.27;107221;1267;22548;-60
2023/11/16 09:24:05;;;;;;;6.00;1.90;;;;;;;-144.73;99.14;86531.06;107389;1262;23916;-57
2023/11/16 09:26:55;;;;;;;4.10;1.90;;;;;;;-144.73;99.43;86534.63;107358;1260;22543;-60
2023/11/16 09:29:41;;;;;;;3.50;1.70;;;;;;;-144.73;99.56;86538.98;106975;1260;25362;-59
2023/11/16 09:32:28;;;;;;;6.30;2.40;;;;;;;-144.73;99.18;86544.51;107180;1267;25359;-59
2023/11/16 09:35:15;;;;;;;4.70;2.20;;;;;;;-144.73;99.73;86552.41;107077;1260;23762;-58
2023/11/16 09:38:08;;;;;;;3.70;2.00;;;;;;;-144.73;99.97;86562.31;106917;1260;25359;-59
2023/11/16 09:41:03;;;;;;;5.50;2.30;;;;;;;-144.73;100.00;86571.80;107573;1265;22527;-60
2023/11/16 09:43:54;;;;;;;3.50;1.90;;;;;;;-144.73;100.00;86579.70;106951;1264;25340;-59
2023/11/16 09:46:46;;;;;;;2.40;1.50;;;;;;;-144.73;100.00;86575.75;106957;1261;22526;-60
2023/11/16 09:49:35;;;;;;;6.20;2.20;;;;;;;-144.73;100.00;86569.43;106664;1269;24212;-59
2023/11/16 09:52:23;;;;;;;3.50;1.80;;;;;;;-144.73;100.00;86581.29;106863;1265;22525;-60
2023/11/16 09:55:11;;;;;;;3.10;1.90;;;;;;;-144.73;100.00;86578.52;107609;1264;22525;-60
2023/11/16 09:58:11;;;;;;;2.80;1.90;;;;;;;-144.73;100.00;86571.80;107019;1267;22556;-59
2023/11/16 10:00:58;;;;;;;3.80;2.10;;;;;;;-144.73;100.00;86571.02;106976;1263;24255;-60
2023/11/16 10:03:48;;;;;;;6.00;2.90;;;;;;;-144.73;100.00;86573.77;106902;1260;22538;-57
2023/11/16 10:06:35;;;;;;;3.90;2.30;;;;;;;-144.73;100.00;86574.96;106730;1263;22615;-59
2023/11/16 10:09:26;;;;;;;5.30;2.70;;;;;;;-144.73;100.00;86573.38;107235;1263;24691;-58
2023/11/16 10:12:13;;;;;;;5.90;3.40;;;;;;;-144.73;100.00;86575.36;107385;1260;22534;-62
2023/11/16 10:15:00;;;;;;;4.90;3.00;;;;;;;-144.73;100.00;86572.20;108013;1263;23869;-59
2023/11/16 10:17:48;;;;;;;5.80;2.40;;;;;;;-144.73;100.00;86569.03;107274;1263;24291;-57
2023/11/16 10:20:38;;;;;;;3.30;2.00;;;;;;;-144.73;100.00;86569.83;107046;1265;22542;-60
2023/11/16 10:23:25;;;;;;;6.40;2.60;;;;;;;-144.73;100.00;86574.17;107178;1263;25313;-59
2023/11/16 10:26:11;;;;;;;3.90;2.40;;;;;;;-144.73;100.00;86583.66;107628;1263;23765;-59
2023/11/16 10:29:00;;;;;;;6.70;3.10;;;;;;;-144.73;100.00;86574.97;107684;1266;22528;-59
2023/11/16 10:31:47;;;;;;;4.40;2.30;;;;;;;-144.73;100.00;86566.66;107360;1256;22564;-58
2023/11/16 10:34:36;;;;;;;5.50;3.60;;;;;;;-144.73;100.00;86580.50;107132;1263;25357;-59
2023/11/16 10:37:24;;;;;;;4.90;2.80;;;;;;;-144.73;100.00;86574.17;107283;1260;22532;-59
2023/11/16 10:40:13;;;;;;;4.40;2.40;;;;;;;-144.73;100.00;86550.45;107491;1269;25310;-60
2023/11/16 10:43:01;;;;;;;4.70;2.60;;;;;;;-144.73;100.00;86558.75;107191;1262;22539;-58
2023/11/16 10:45:48;;;;;;;4.80;2.10;;;;;;;-144.73;100.00;86550.45;107558;1263;22599;-60
2023/11/16 10:48:34;;;;;;;8.50;3.10;;;;;;;-144.73;100.00;86565.08;107704;1266;25249;-57
2023/11/16 10:51:24;;;;;;;6.90;3.20;;;;;;;-144.73;100.00;86557.56;107130;1254;25379;-58
2023/11/16 10:54:13;;;;;;;6.00;3.40;;;;;;;-144.73;100.00;86538.58;107235;1264;25249;-59
2023/11/16 10:57:04;;;;;;;6.20;2.70;;;;;;;-144.73;100.00;86561.13;107605;1267;22551;-59
2023/11/16 10:59:50;;;;;;;3.80;1.80;;;;;;;-144.73;100.00;86556.38;107394;1264;22544;-59
2023/11/16 11:02:37;;;;;;;3.20;1.50;;;;;;;-144.73;100.00;86575.36;107249;1263;23141;-57
2023/11/16 11:05:29;;;;;;;2.80;1.40;;;;;;;-144.73;100.00;86586.04;107585;1262;22542;-60
2023/11/16 11:08:19;;;;;;;3.20;1.60;;;;;;;-144.73;100.00;86565.86;107298;1267;22529;-58
2023/11/16 11:11:07;;;;;;;4.60;2.00;;;;;;;-144.73;100.00;86572.98;107270;1271;22553;-59
2023/11/16 11:13:57;;;;;;;6.00;1.90;;;;;;;-144.73;100.00;86585.64;107542;1263;25246;-59
2023/11/16 11:16:50;;;;;;;3.40;1.70;;;;;;;-144.73;100.00;86586.04;107173;1263;22752;-60
2023/11/16 11:19:37;;;;;;;;;;;;;;;-144.73;100.00;86582.09;107201;1267;22514;-57
2023/11/16 11:22:27;;;;;;;2.70;1.50;;;;;;;-144.73;100.00;86599.09;106842;1263;22533;-59
2023/11/16 11:25:22;;;;;;;2.30;1.20;;;;;;;-144.73;100.00;86598.70;110321;1267;22314;-58
2023/11/16 11:28:11;;;;;;;3.20;1.50;;;;;;;-144.73;100.00;86586.04;110315;1263;22657;-60
2023/11/16 11:30:59;;;;;;;4.80;1.60;;;;;;;-144.73;100.00;86607.00;110317;1257;23018;-56
2023/11/16 11:33:46;;;;;;;3.00;1.70;;;;;;;-144.73;100.00;86603.05;110281;1256;23093;-60
2023/11/16 11:36:32;;;;;;;4.40;1.80;;;;;;;-144.73;100.00;86605.42;110194;1263;22253;-61
2023/11/16 11:39:23;;;;;;;4.70;1.70;;;;;;;-144.73;100.00;86607.79;110205;1263;22321;-58
2023/11/16 11:42:10;;;;;;;5.50;2.00;;;;;;;-144.73;100.00;86589.98;110187;1272;22135;-61
2023/11/16 11:44:56;;;;;;;2.20;1.20;;;;;;;-144.73;100.00;86610.16;110196;1270;22199;-59
2023/11/16 11:47:43;;;;;;;4.10;1.60;;;;;;;-144.73;100.00;86598.30;110175;1262;22340;-57
2023/11/16 11:50:34;;;;;;;4.20;1.70;;;;;;;-144.73;100.00;86624.80;110296;1260;22221;-59
2023/11/16 11:53:27;;;;;;;3.00;1.30;;;;;;;-144.73;100.00;86603.44;110198;1263;22140;-59
2023/11/16 11:56:15;;;;;;;4.80;1.60;;;;;;;-144.73;100.00;86614.91;110231;1265;22359;-59
2023/11/16 11:59:04;;;;;;;3.10;1.30;;;;;;;-144.73;100.00;86625.20;110202;1263;22950;-59
2023/11/16 12:01:51;;;;;;;2.70;1.80;;;;;;;-144.73;100.00;86593.16;110250;1263;22405;-58
2023/11/16 12:04:39;;;;;;;2.50;1.10;;;;;;;-144.73;100.00;86597.51;110191;1267;22916;-60
2023/11/16 12:07:26;;;;;;;2.30;1.30;;;;;;;-144.73;100.00;86606.20;110326;1263;22321;-60
2023/11/16 12:10:13;;;;;;;2.70;1.50;;;;;;;-144.73;100.00;86599.48;110201;1265;22811;-58
2023/11/16 12:13:00;;;;;;;3.00;1.50;;;;;;;-144.73;100.00;86607.80;110349;1271;22942;-59
2023/11/16 12:15:50;;;;;;;2.10;1.30;;;;;;;-144.73;100.00;86615.70;110303;1263;23045;-59
2023/11/16 12:18:41;;;;;;;3.50;1.80;;;;;;;-144.73;100.00;86610.16;110242;1277;22233;-60
2023/11/16 12:21:28;;;;;;;3.60;1.70;;;;;;;-144.73;100.00;86618.86;110191;1266;22313;-60
2023/11/16 12:24:14;;;;;;;4.70;2.30;;;;;;;-144.73;100.00;86615.30;110241;1259;22914;-60
2023/11/16 12:27:06;;;;;;;4.40;2.20;;;;;;;-144.73;100.00;86622.02;110244;1267;23063;-60
2023/11/16 12:29:58;;;;;;;6.30;1.80;;;;;;;-144.73;100.00;86618.07;110210;1271;22251;-60
2023/11/16 12:32:46;;;;;;;3.00;1.70;;;;;;;-144.73;100.00;86621.63;110192;1267;23402;-60
2023/11/16 12:35:36;;;;;;;4.30;2.20;;;;;;;-144.73;100.00;86621.23;110232;1260;22347;-61
2023/11/16 12:38:23;;;;;;;4.60;2.20;;;;;;;-144.73;100.00;86616.48;110220;1271;22892;-60
2023/11/16 12:41:12;;;;;;;5.50;3.10;;;;;;;-144.73;100.00;86614.12;110239;1256;22213;-59
2023/11/16 12:44:00;;;;;;;4.40;2.10;;;;;;;-144.73;100.00;86625.59;110306;1270;22844;-60
2023/11/16 12:46:47;;;;;;;9.60;3.10;;;;;;;-144.73;100.00;86620.05;110244;1263;22329;-60
2023/11/16 12:49:33;;;;;;;5.00;2.90;;;;;;;-144.73;100.00;86638.24;110224;1263;22917;-61
2023/11/16 12:52:23;;;;;;;4.00;2.00;;;;;;;-144.73;100.00;86609.77;110209;1271;22302;-60
2023/11/16 12:55:13;;;;;;;4.60;1.90;;;;;;;-144.73;100.00;86608.98;110198;1266;22235;-62
2023/11/16 12:58:00;;;;;;;2.90;1.40;;;;;;;-144.73;100.00;86607.79;110242;1263;22338;-59
2023/11/16 13:00:46;;;;;;;3.50;1.50;;;;;;;-144.73;100.00;86623.21;110199;1272;22349;-60
2023/11/16 13:03:34;;;;;;;4.40;2.10;;;;;;;-144.73;100.00;86616.89;110184;1262;22346;-61
2023/11/16 13:06:34;;;;;;;3.90;1.90;;;;;;;-144.73;100.00;86635.08;110227;1271;22356;-61
2023/11/16 13:09:21;;;;;;;4.40;2.20;;;;;;;-144.73;100.00;86621.23;110199;1272;22210;-60
2023/11/16 13:12:08;;;;;;;3.10;1.60;;;;;;;-144.73;100.00;86623.61;110257;1271;22185;-62
2023/11/16 13:15:08;;;;;;;4.90;2.00;;;;;;;-144.73;100.00;86602.64;110301;1263;22301;-60
2023/11/16 13:17:54;;;;;;;4.00;1.70;;;;;;;-144.73;100.00;86632.70;110308;1261;22175;-61
2023/11/16 13:20:41;;;;;;;3.30;1.80;;;;;;;-144.73;100.00;86613.33;110176;1265;22331;-60
2023/11/16 13:23:28;;;;;;;4.40;2.00;;;;;;;-144.73;100.00;86614.91;110196;1267;22319;-61
2023/11/16 13:26:15;;;;;;;5.40;1.80;;;;;;;-144.73;100.00;86622.02;110248;1269;22994;-62
2023/11/16 13:29:02;;;;;;;3.60;1.70;;;;;;;-144.73;100.00;86618.47;110217;1263;22176;-59
2023/11/16 13:31:49;;;;;;;3.90;2.00;;;;;;;-144.73;100.00;86619.65;110189;1272;22352;-61
2023/11/16 13:34:37;;;;;;;4.20;2.30;;;;;;;-144.73;100.00;86616.48;110181;1272;22387;-64
2023/11/16 13:37:24;;;;;;;5.80;2.70;;;;;;;-144.73;100.00;86622.42;110231;1264;22155;-62
2023/11/16 13:40:13;;;;;;;4.40;2.40;;;;;;;-144.73;100.00;86642.59;110197;1265;22406;-58
2023/11/16 13:43:00;;;;;;;4.90;2.60;;;;;;;-144.73;100.00;86635.48;110224;1263;22190;-61
2023/11/16 13:45:46;;;;;;;3.60;2.20;;;;;;;-144.73;100.00;86641.80;110254;1259;22305;-61
2023/11/16 13:48:32;;;;;;;4.50;2.20;;;;;;;-144.73;100.00;86628.35;110221;1263;22167;-60
2023/11/16 13:51:19;;;;;;;3.20;1.90;;;;;;;-144.73;100.00;86637.85;110317;1258;22164;-59
2023/11/16 13:54:05;;;;;;;4.60;2.20;;;;;;;-144.73;100.00;86635.08;110209;1259;22223;-60
2023/11/16 13:56:51;;;;;;;3.50;2.10;;;;;;;-144.73;100.00;86624.01;110219;1263;22321;-60
2023/11/16 13:59:38;;;;;;;4.40;2.50;;;;;;;-144.73;100.00;86643.38;110220;1261;22213;-60
2023/11/16 14:02:25;;;;;;;4.00;2.70;;;;;;;-144.73;100.00;86647.73;110234;1263;22803;-60
2023/11/16 14:05:12;;;;;;;4.30;2.50;;;;;;;-144.73;100.00;86631.91;110235;1267;22229;-60
2023/11/16 14:07:59;;;;;;;4.60;2.70;;;;;;;-144.73;100.00;86625.59;110265;1263;22143;-61
2023/11/16 14:10:46;;;;;;;4.70;2.40;;;;;;;-144.73;100.00;86642.98;110265;1263;22324;-59
2023/11/16 14:13:32;;;;;;;7.30;3.20;;;;;;;-144.73;100.00;86643.39;110322;1263;22379;-59
2023/11/16 14:16:19;;;;;;;4.20;2.20;;;;;;;-144.73;100.00;86639.03;110218;1266;22306;-60
2023/11/16 14:19:07;;;;;;;4.60;2.80;;;;;;;-144.73;100.00;86648.92;110201;1263;22249;-60
2023/11/16 14:21:54;;;;;;;6.00;3.20;;;;;;;-144.73;100.00;86645.75;110214;1263;22211;-60
2023/11/16 14:24:44;;;;;;;4.30;2.20;;;;;;;-144.73;100.00;86636.27;110295;1263;22240;-60
2023/11/16 14:27:31;;;;;;;4.50;1.90;;;;;;;-144.73;100.00;86635.88;110245;1262;22199;-59
2023/11/16 14:30:17;;;;;;;4.30;2.30;;;;;;;-144.73;100.00;86645.76;110275;1268;23038;-60
2023/11/16 14:33:04;;;;;;;4.40;2.50;;;;;;;-144.73;100.00;86629.94;110236;1272;22405;-59
2023/11/16 14:35:50;;;;;;;6.00;2.60;;;;;;;-144.73;100.00;86643.38;110248;1269;22347;-60
2023/11/16 14:38:37;;;;;;;4.10;2.10;;;;;;;-144.73;100.00;86654.06;110238;1263;22993;-60
2023/11/16 14:41:24;;;;;;;3.80;2.50;;;;;;;-144.73;100.00;86642.98;110323;1269;22366;-60
2023/11/16 14:44:17;;;;;;;4.20;2.40;;;;;;;-144.73;100.00;86635.48;110240;1269;22200;-62
2023/11/16 14:47:04;;;;;;;3.80;2.20;;;;;;;-144.73;100.00;86633.50;110233;1266;22421;-57
2023/11/16 14:49:56;;;;;;;4.70;2.40;;;;;;;-144.73;100.00;86646.55;110224;1265;22139;-58
2023/11/16 14:52:43;;;;;;;4.00;2.20;;;;;;;-144.73;100.00;86647.34;110238;1259;22353;-59
2023/11/16 14:55:30;;;;;;;6.00;2.20;;;;;;;-144.73;100.00;86645.36;110230;1260;22267;-58
2023/11/16 14:58:17;;;;;;;3.60;2.00;;;;;;;-144.73;100.00;86651.69;110311;1259;22335;-59
2023/11/16 15:01:03;;;;;;;5.70;2.50;;;;;;;-144.73;100.00;86655.25;110229;1265;22190;-57
2023/11/16 15:03:50;;;;;;;5.40;3.00;;;;;;;-144.73;100.00;86647.73;110194;1266;22391;-59
2023/11/16 15:06:36;;;;;;;4.00;2.80;;;;;;;-144.73;100.00;86641.41;110277;1257;22815;-57
2023/11/16 15:09:22;;;;;;;5.50;3.00;;;;;;;-144.73;100.00;86655.64;110182;1264;22192;-56
2023/11/16 15:12:09;;;;;;;6.60;3.00;;;;;;;-144.73;100.00;86655.25;110222;1263;22865;-60
2023/11/16 15:14:55;;;;;;;5.20;2.90;;;;;;;-144.73;100.00;86646.55;110302;1262;23595;-59
2023/11/16 15:17:41;;;;;;;4.90;2.70;;;;;;;-144.73;100.00;86668.30;110231;1272;22162;-58
2023/11/16 15:20:28;;;;;;;5.90;2.70;;;;;;;-144.73;100.00;86653.66;110292;1264;22333;-57
2023/11/16 15:23:14;;;;;;;4.70;2.80;;;;;;;-144.73;100.00;86652.88;110215;1263;22362;-59
2023/11/16 15:26:00;;;;;;;5.90;2.90;;;;;;;-144.73;100.00;86640.21;110287;1259;22138;-57
2023/11/16 15:28:53;;;;;;;4.60;2.30;;;;;;;-144.73;100.00;86646.95;110323;1263;22181;-56
2023/11/16 15:31:40;;;;;;;5.20;2.70;;;;;;;-144.73;100.00;86656.84;110248;1267;22266;-57
2023/11/16 15:34:27;;;;;;;4.90;2.40;;;;;;;-144.73;100.00;86662.37;110255;1262;22191;-57
2023/11/16 15:37:15;;;;;;;5.80;2.50;;;;;;;-144.73;100.00;86659.20;110201;1263;22365;-56
2023/11/16 15:40:04;;;;;;;5.10;2.90;;;;;;;-144.73;100.00;86648.13;110268;1263;22264;-57
2023/11/16 15:42:52;;;;;;;5.40;2.90;;;;;;;-144.73;100.00;86668.30;110307;1268;23028;-62
2023/11/16 15:45:39;;;;;;;4.80;2.70;;;;;;;-144.73;100.00;86656.83;110268;1263;22207;-58
2023/11/16 15:48:26;;;;;;;4.70;2.80;;;;;;;-144.73;100.00;86664.35;110239;1259;22201;-58
2023/11/16 15:51:12;;;;;;;4.30;2.50;;;;;;;-144.73;100.00;86648.92;110221;1260;22993;-59
2023/11/16 15:54:02;;;;;;;3.90;2.40;;;;;;;-144.73;100.00;86655.25;110232;1262;22341;-57
2023/11/16 15:56:51;;;;;;;5.10;2.70;;;;;;;-144.73;100.00;86646.95;110228;1263;22343;-55
2023/11/16 15:59:37;;;;;;;5.00;2.70;;;;;;;-144.73;100.00;86641.80;110260;1263;22303;-57
2023/11/16 16:02:27;;;;;;;4.40;2.40;;;;;;;-144.73;100.00;86655.25;110307;1262;22328;-57
2023/11/16 16:05:17;;;;;;;5.50;2.40;;;;;;;-144.73;100.00;86640.22;110237;1260;22353;-58
2023/11/16 16:08:08;;;;;;;5.30;2.70;;;;;;;-144.73;100.00;86646.16;110255;1275;22136;-58
2023/11/16 16:10:55;;;;;;;6.30;2.70;;;;;;;-144.73;100.00;86653.66;110241;1263;22952;-58
2023/11/16 16:13:42;;;;;;;4.10;2.30;;;;;;;-144.73;100.00;86640.61;110255;1275;22154;-56
2023/11/16 16:16:31;;;;;;;6.40;3.50;;;;;;;-144.73;100.00;86653.27;110265;1268;22182;-60
2023/11/16 16:19:18;;;;;;;5.30;3.10;;;;;;;-144.73;100.00;86656.04;110225;1269;23056;-60
2023/11/16 16:22:05;;;;;;;6.00;3.00;;;;;;;-144.73;100.00;86648.52;110254;1263;22348;-61
2023/11/16 16:24:53;;;;;;;6.20;2.80;;;;;;;-144.73;100.00;86670.67;110220;1263;22143;-61
2023/11/16 16:27:40;;;;;;;5.60;2.50;;;;;;;-144.73;100.00;86652.48;110248;1262;22313;-61
2023/11/16 16:30:26;;;;;;;5.40;3.20;;;;;;;-144.73;100.00;86666.33;110300;1257;22324;-60
2023/11/16 16:33:13;;;;;;;4.40;2.80;;;;;;;-144.73;100.00;86650.50;110225;1263;22308;-60
2023/11/16 16:36:02;;;;;;;6.00;3.30;;;;;;;-144.73;100.00;86645.36;110235;1262;22375;-60
2023/11/16 16:38:48;;;;;;;6.10;2.40;;;;;;;-144.73;100.00;86654.06;110200;1275;23192;-61
2023/11/16 16:41:34;;;;;;;10.10;5.30;;;;;;;-144.73;100.00;86644.96;110288;1273;22380;-61
2023/11/16 16:44:21;;;;;;;9.50;4.10;;;;;;;-144.73;100.00;86660.39;110301;1263;23495;-60
2023/11/16 16:47:07;;;;;;;10.70;5.40;;;;;;;-144.73;100.00;86658.80;110219;1272;23014;-61
2023/11/16 16:49:55;;;;;;;7.80;4.30;;;;;;;-144.73;100.00;86659.59;110331;1259;22188;-61
2023/11/16 16:52:42;;;;;;;6.80;3.70;;;;;;;-144.73;100.00;86658.81;110200;1263;22235;-60
2023/11/16 16:55:28;;;;;;;7.90;4.10;;;;;;;-144.73;100.00;86661.58;110247;1266;22821;-59
2023/11/16 16:58:14;;;;;;;7.20;3.60;;;;;;;-144.73;100.00;86655.25;110282;1259;22359;-59
2023/11/16 17:01:01;;;;;;;5.50;3.00;;;;;;;-144.73;100.00;86667.52;110220;1259;22204;-59
2023/11/16 17:03:47;;;;;;;4.50;2.60;;;;;;;-144.73;100.00;86680.56;110235;1272;22330;-61
2023/11/16 17:06:34;;;;;;;5.80;3.00;;;;;;;-144.73;100.00;86673.05;110348;1257;22198;-59
2023/11/16 17:09:21;;;;;;;9.10;5.30;;;;;;;-144.73;100.00;86663.55;110248;1262;22381;-60
2023/11/16 17:12:07;;;;;;;6.90;4.50;;;;;;;-144.73;100.00;86667.52;110279;1262;22324;-60
2023/11/16 17:14:53;;;;;;;5.80;3.30;;;;;;;-144.73;100.00;86678.19;110255;1263;22368;-59
2023/11/16 17:17:40;;;;;;;4.00;2.50;;;;;;;-144.73;100.00;86695.98;110345;1263;22314;-59
2023/11/16 17:20:27;;;;;;;4.90;2.80;;;;;;;-144.73;100.00;86682.14;110290;1273;22192;-60
2023/11/16 17:23:13;;;;;;;4.20;2.40;;;;;;;-144.73;100.00;86665.93;110289;1259;22360;-59
2023/11/16 17:26:00;;;;;;;5.40;3.00;;;;;;;-144.73;100.00;86697.17;110240;1263;22872;-59
2023/11/16 17:28:48;;;;;;;4.40;2.50;;;;;;;-144.73;100.00;86672.26;110270;1263;22110;-60
2023/11/16 17:31:37;;;;;;;4.70;2.80;;;;;;;-144.73;100.00;86679.38;110263;1275;22839;-60
2023/11/16 17:34:24;;;;;;;6.30;3.30;;;;;;;-144.73;100.00;86680.55;110262;1269;22870;-60
2023/11/16 17:37:10;;;;;;;5.80;2.90;;;;;;;-144.73;100.00;86682.94;110300;1270;22187;-60
2023/11/16 17:39:56;;;;;;;5.70;3.10;;;;;;;-144.73;100.00;86682.14;110235;1270;22327;-59
2023/11/16 17:42:43;;;;;;;6.50;3.20;;;;;;;-144.73;100.00;86675.42;110286;1257;22349;-60
2023/11/16 17:45:31;;;;;;;6.90;4.00;;;;;;;-144.73;100.00;86674.63;110224;1275;22798;-60
2023/11/16 17:48:17;;;;;;;6.40;3.60;;;;;;;-144.73;100.00;86679.77;110187;1263;22410;-61
2023/11/16 17:51:04;;;;;;;4.50;2.60;;;;;;;-144.73;100.00;86686.10;110255;1274;22198;-59
2023/11/16 17:53:51;;;;;;;5.60;3.30;;;;;;;-144.73;100.00;86678.19;110243;1269;22411;-62
2023/11/16 17:56:37;;;;;;;7.50;3.60;;;;;;;-144.73;100.00;86681.35;110166;1262;22354;-58
2023/11/16 17:59:23;;;;;;;5.10;3.10;;;;;;;-144.73;100.00;86671.86;110311;1258;22957;-60
2023/11/16 18:02:10;;;;;;;4.30;3.00;;;;;;;-144.73;100.00;86668.30;110285;1260;22209;-64
2023/11/16 18:04:56;;;;;;;3.50;2.20;;;;;;;-144.73;100.00;86675.02;110328;1269;23124;-66
2023/11/16 18:07:45;;;;;;;5.10;2.80;;;;;;;-144.73;100.00;86680.16;110293;1269;22333;-63
2023/11/16 18:10:33;;;;;;;8.10;3.40;;;;;;;-144.73;100.00;86687.29;110221;1267;22978;-64
2023/11/16 18:13:19;;;;;;;5.00;2.90;;;;;;;-144.73;100.00;86688.08;110364;1264;22949;-62
2023/11/16 18:16:07;;;;;;;5.20;3.00;;;;;;;-144.73;100.00;86690.05;110239;1260;22649;-64
2023/11/16 18:18:54;;;;;;;3.90;2.30;;;;;;;-144.73;100.00;86698.75;110256;1273;22216;-63
2023/11/16 18:21:41;;;;;;;5.40;2.70;;;;;;;-144.73;100.00;86706.27;110309;1272;22166;-65
2023/11/16 18:24:27;;;;;;;4.10;2.30;;;;;;;-144.73;100.00;86703.90;110258;1270;22180;-66
2023/11/16 18:27:14;;;;;;;4.90;3.20;;;;;;;-144.73;100.00;86705.09;110328;1261;22331;-62
2023/11/16 18:30:00;;;;;;;5.70;3.80;;;;;;;-144.73;100.00;86703.11;110299;1260;22335;-63
2023/11/16 18:32:50;;;;;;;5.00;2.80;;;;;;;-144.73;100.00;86706.27;110271;1272;22326;-65
2023/11/16 18:35:40;;;;;;;6.10;2.90;;;;;;;-144.73;100.00;86715.76;110353;1271;22194;-63
2023/11/16 18:38:28;;;;;;;3.90;2.50;;;;;;;-144.73;100.00;86704.30;110353;1263;133050;-63
2023/11/16 18:41:15;;;;;;;6.30;3.00;;;;;;;-144.73;100.00;86702.32;110238;1259;22342;-61
2023/11/16 18:44:03;;;;;;;4.80;2.40;;;;;;;-144.73;100.00;86705.08;110435;1269;22204;-62
2023/11/16 18:46:49;;;;;;;4.00;2.70;;;;;;;-144.73;100.00;86694.40;110267;1264;22452;-61
2023/11/16 18:49:36;;;;;;;5.10;2.30;;;;;;;-144.73;100.00;86691.64;110279;1273;22187;-65
2023/11/16 18:52:22;;;;;;;4.80;2.70;;;;;;;-144.73;100.00;86727.23;110430;1260;22409;-62
2023/11/16 18:55:09;;;;;;;6.30;2.70;;;;;;;-144.73;100.00;86705.48;110289;1268;22326;-65
2023/11/16 18:57:55;;;;;;;4.50;2.70;;;;;;;-144.73;100.00;86705.09;110288;1269;22392;-66
2023/11/16 19:00:42;;;;;;;4.10;2.40;;;;;;;-144.73;100.00;86710.63;110449;1267;22168;-60
2023/11/16 19:03:28;;;;;;;5.20;2.60;;;;;;;-144.73;100.00;86706.67;110273;1270;22190;-67
2023/11/16 19:06:16;;;;;;;3.60;2.10;;;;;;;-144.73;100.00;86713.39;110376;1264;22305;-69
2023/11/16 19:09:03;;;;;;;4.30;2.30;;;;;;;-144.73;100.00;86712.99;110331;1257;22412;-66